sensor_id;sensor_type;location;lat;lon;timestamp;P1;durP1;ratioP1;P2;durP2;ratioP2
9934;SDS011;5006;41.828;23.478;2023-04-30T00:00:34;5.10;;;4.55;;
9934;SDS011;5006;41.828;23.478;2023-04-30T00:01:40;4.85;;;4.18;;
9934;SDS011;5006;41.828;23.478;2023-04-30T00:02:46;5.63;;;4.30;;
9934;SDS011;5006;41.828;23.478;2023-04-30T00:03:51;5.05;;;4.55;;
9934;SDS011;5006;41.828;23.478;2023-04-30T00:04:57;5.80;;;5.05;;
9934;SDS011;5006;41.828;23.478;2023-04-30T00:06:02;6.38;;;4.80;;
9934;SDS011;5006;41.828;23.478;2023-04-30T00:07:09;5.05;;;4.40;;
9934;SDS011;5006;41.828;23.478;2023-04-30T00:08:16;7.15;;;4.72;;
9934;SDS011;5006;41.828;23.478;2023-04-30T00:09:20;6.00;;;4.63;;
9934;SDS011;5006;41.828;23.478;2023-04-30T00:10:26;5.63;;;4.68;;
9934;SDS011;5006;41.828;23.478;2023-04-30T00:11:32;5.13;;;4.63;;
9934;SDS011;5006;41.828;23.478;2023-04-30T00:12:37;7.13;;;4.70;;
9934;SDS011;5006;41.828;23.478;2023-04-30T00:13:43;5.20;;;4.70;;
9934;SDS011;5006;41.828;23.478;2023-04-30T00:14:49;5.18;;;4.55;;
9934;SDS011;5006;41.828;23.478;2023-04-30T00:15:55;5.03;;;4.28;;
9934;SDS011;5006;41.828;23.478;2023-04-30T00:17:00;5.25;;;4.07;;
9934;SDS011;5006;41.828;23.478;2023-04-30T00:18:06;4.70;;;4.25;;
9934;SDS011;5006;41.828;23.478;2023-04-30T00:19:12;6.68;;;4.00;;
9934;SDS011;5006;41.828;23.478;2023-04-30T00:20:16;5.50;;;4.40;;
9934;SDS011;5006;41.828;23.478;2023-04-30T00:21:23;6.40;;;4.30;;
9934;SDS011;5006;41.828;23.478;2023-04-30T00:22:29;5.43;;;4.18;;
9934;SDS011;5006;41.828;23.478;2023-04-30T00:23:37;4.80;;;4.30;;
9934;SDS011;5006;41.828;23.478;2023-04-30T00:24:42;6.95;;;4.18;;
9934;SDS011;5006;41.828;23.478;2023-04-30T00:25:47;5.32;;;4.38;;
9934;SDS011;5006;41.828;23.478;2023-04-30T00:26:52;5.55;;;4.45;;
9934;SDS011;5006;41.828;23.478;2023-04-30T00:27:58;5.60;;;4.47;;
9934;SDS011;5006;41.828;23.478;2023-04-30T00:29:03;6.05;;;5.10;;
9934;SDS011;5006;41.828;23.478;2023-04-30T00:30:10;7.80;;;5.75;;
9934;SDS011;5006;41.828;23.478;2023-04-30T00:31:15;8.18;;;6.65;;
9934;SDS011;5006;41.828;23.478;2023-04-30T00:32:22;10.05;;;7.60;;
9934;SDS011;5006;41.828;23.478;2023-04-30T00:33:26;9.63;;;7.00;;
9934;SDS011;5006;41.828;23.478;2023-04-30T00:34:32;9.63;;;6.93;;
9934;SDS011;5006;41.828;23.478;2023-04-30T00:35:38;6.53;;;5.70;;
9934;SDS011;5006;41.828;23.478;2023-04-30T00:36:44;7.00;;;4.60;;
9934;SDS011;5006;41.828;23.478;2023-04-30T00:37:51;6.97;;;5.93;;
9934;SDS011;5006;41.828;23.478;2023-04-30T00:38:57;7.07;;;5.57;;
9934;SDS011;5006;41.828;23.478;2023-04-30T00:40:03;6.93;;;5.47;;
9934;SDS011;5006;41.828;23.478;2023-04-30T00:41:10;5.68;;;4.95;;
9934;SDS011;5006;41.828;23.478;2023-04-30T00:42:16;5.85;;;5.25;;
9934;SDS011;5006;41.828;23.478;2023-04-30T00:43:21;5.80;;;5.13;;
9934;SDS011;5006;41.828;23.478;2023-04-30T00:44:28;8.32;;;5.47;;
9934;SDS011;5006;41.828;23.478;2023-04-30T00:45:33;5.82;;;4.97;;
9934;SDS011;5006;41.828;23.478;2023-04-30T00:46:38;6.88;;;5.28;;
9934;SDS011;5006;41.828;23.478;2023-04-30T00:47:43;5.88;;;5.18;;
9934;SDS011;5006;41.828;23.478;2023-04-30T00:48:49;10.23;;;6.10;;
9934;SDS011;5006;41.828;23.478;2023-04-30T00:49:54;7.13;;;5.20;;
9934;SDS011;5006;41.828;23.478;2023-04-30T00:51:01;6.63;;;5.70;;
9934;SDS011;5006;41.828;23.478;2023-04-30T00:52:08;10.32;;;5.88;;
9934;SDS011;5006;41.828;23.478;2023-04-30T00:53:16;6.00;;;4.85;;
9934;SDS011;5006;41.828;23.478;2023-04-30T00:54:21;4.65;;;4.25;;
9934;SDS011;5006;41.828;23.478;2023-04-30T00:55:29;7.53;;;4.90;;
9934;SDS011;5006;41.828;23.478;2023-04-30T00:56:34;7.03;;;5.22;;
9934;SDS011;5006;41.828;23.478;2023-04-30T00:57:40;5.72;;;4.65;;
9934;SDS011;5006;41.828;23.478;2023-04-30T00:58:45;6.43;;;4.85;;
9934;SDS011;5006;41.828;23.478;2023-04-30T00:59:54;5.93;;;5.15;;
9934;SDS011;5006;41.828;23.478;2023-04-30T01:01:00;6.75;;;4.80;;
9934;SDS011;5006;41.828;23.478;2023-04-30T01:02:08;5.22;;;4.72;;
9934;SDS011;5006;41.828;23.478;2023-04-30T01:03:14;7.50;;;4.80;;
9934;SDS011;5006;41.828;23.478;2023-04-30T01:04:20;5.72;;;4.75;;
9934;SDS011;5006;41.828;23.478;2023-04-30T01:05:25;5.78;;;4.95;;
9934;SDS011;5006;41.828;23.478;2023-04-30T01:06:31;4.95;;;4.30;;
9934;SDS011;5006;41.828;23.478;2023-04-30T01:07:37;7.25;;;4.75;;
9934;SDS011;5006;41.828;23.478;2023-04-30T01:08:49;7.53;;;4.78;;
9934;SDS011;5006;41.828;23.478;2023-04-30T01:09:55;5.97;;;4.90;;
9934;SDS011;5006;41.828;23.478;2023-04-30T01:11:05;5.25;;;4.65;;
9934;SDS011;5006;41.828;23.478;2023-04-30T01:12:17;6.10;;;5.47;;
9934;SDS011;5006;41.828;23.478;2023-04-30T01:13:34;5.60;;;4.93;;
9934;SDS011;5006;41.828;23.478;2023-04-30T01:14:46;5.88;;;4.95;;
9934;SDS011;5006;41.828;23.478;2023-04-30T01:16:02;8.25;;;5.28;;
9934;SDS011;5006;41.828;23.478;2023-04-30T01:17:14;7.90;;;5.53;;
9934;SDS011;5006;41.828;23.478;2023-04-30T01:18:27;6.38;;;5.40;;
9934;SDS011;5006;41.828;23.478;2023-04-30T01:19:37;8.13;;;5.72;;
9934;SDS011;5006;41.828;23.478;2023-04-30T01:20:47;6.18;;;5.57;;
9934;SDS011;5006;41.828;23.478;2023-04-30T01:21:56;6.75;;;5.80;;
9934;SDS011;5006;41.828;23.478;2023-04-30T01:23:10;6.68;;;5.55;;
9934;SDS011;5006;41.828;23.478;2023-04-30T01:24:27;7.68;;;5.70;;
9934;SDS011;5006;41.828;23.478;2023-04-30T01:25:50;5.97;;;5.35;;
9934;SDS011;5006;41.828;23.478;2023-04-30T01:27:11;6.50;;;5.82;;
9934;SDS011;5006;41.828;23.478;2023-04-30T01:28:29;9.38;;;6.65;;
9934;SDS011;5006;41.828;23.478;2023-04-30T01:29:36;7.78;;;6.97;;
9934;SDS011;5006;41.828;23.478;2023-04-30T01:30:45;11.63;;;7.97;;
9934;SDS011;5006;41.828;23.478;2023-04-30T01:31:53;10.85;;;8.90;;
9934;SDS011;5006;41.828;23.478;2023-04-30T01:32:58;12.75;;;9.13;;
9934;SDS011;5006;41.828;23.478;2023-04-30T01:34:04;8.27;;;6.85;;
9934;SDS011;5006;41.828;23.478;2023-04-30T01:35:09;7.18;;;5.95;;
9934;SDS011;5006;41.828;23.478;2023-04-30T01:37:47;12.02;;;7.63;;
9934;SDS011;5006;41.828;23.478;2023-04-30T01:39:01;8.25;;;6.95;;
9934;SDS011;5006;41.828;23.478;2023-04-30T01:40:21;6.28;;;5.65;;
9934;SDS011;5006;41.828;23.478;2023-04-30T01:41:31;5.70;;;5.15;;
9934;SDS011;5006;41.828;23.478;2023-04-30T01:42:40;7.10;;;5.75;;
9934;SDS011;5006;41.828;23.478;2023-04-30T01:43:57;6.00;;;5.43;;
9934;SDS011;5006;41.828;23.478;2023-04-30T01:45:17;11.00;;;7.75;;
9934;SDS011;5006;41.828;23.478;2023-04-30T01:46:32;8.27;;;7.18;;
9934;SDS011;5006;41.828;23.478;2023-04-30T01:47:39;7.82;;;6.78;;
9934;SDS011;5006;41.828;23.478;2023-04-30T01:48:59;8.43;;;5.70;;
9934;SDS011;5006;41.828;23.478;2023-04-30T01:50:14;6.45;;;5.72;;
9934;SDS011;5006;41.828;23.478;2023-04-30T01:51:30;7.55;;;5.80;;
9934;SDS011;5006;41.828;23.478;2023-04-30T01:52:44;7.07;;;5.53;;
9934;SDS011;5006;41.828;23.478;2023-04-30T01:53:53;8.57;;;6.03;;
9934;SDS011;5006;41.828;23.478;2023-04-30T01:55:03;7.05;;;5.57;;
9934;SDS011;5006;41.828;23.478;2023-04-30T01:56:15;7.13;;;5.72;;
9934;SDS011;5006;41.828;23.478;2023-04-30T01:57:27;8.65;;;7.00;;
9934;SDS011;5006;41.828;23.478;2023-04-30T01:58:36;10.43;;;7.90;;
9934;SDS011;5006;41.828;23.478;2023-04-30T01:59:44;9.05;;;7.60;;
9934;SDS011;5006;41.828;23.478;2023-04-30T02:00:51;8.48;;;6.88;;
9934;SDS011;5006;41.828;23.478;2023-04-30T02:01:56;7.10;;;6.10;;
9934;SDS011;5006;41.828;23.478;2023-04-30T02:03:02;6.60;;;6.00;;
9934;SDS011;5006;41.828;23.478;2023-04-30T02:04:08;7.93;;;6.43;;
9934;SDS011;5006;41.828;23.478;2023-04-30T02:05:14;8.40;;;6.50;;
9934;SDS011;5006;41.828;23.478;2023-04-30T02:06:20;7.55;;;6.15;;
9934;SDS011;5006;41.828;23.478;2023-04-30T02:07:36;7.00;;;5.95;;
9934;SDS011;5006;41.828;23.478;2023-04-30T02:08:44;8.52;;;6.10;;
9934;SDS011;5006;41.828;23.478;2023-04-30T02:09:50;7.05;;;5.50;;
9934;SDS011;5006;41.828;23.478;2023-04-30T02:10:56;7.78;;;6.00;;
9934;SDS011;5006;41.828;23.478;2023-04-30T02:12:01;6.40;;;5.78;;
9934;SDS011;5006;41.828;23.478;2023-04-30T02:13:08;9.68;;;6.15;;
9934;SDS011;5006;41.828;23.478;2023-04-30T02:14:13;6.82;;;6.20;;
9934;SDS011;5006;41.828;23.478;2023-04-30T02:15:20;7.72;;;5.90;;
9934;SDS011;5006;41.828;23.478;2023-04-30T02:16:25;6.80;;;5.68;;
9934;SDS011;5006;41.828;23.478;2023-04-30T02:17:32;6.18;;;5.57;;
9934;SDS011;5006;41.828;23.478;2023-04-30T02:18:39;6.30;;;5.70;;
9934;SDS011;5006;41.828;23.478;2023-04-30T02:19:44;6.03;;;5.50;;
9934;SDS011;5006;41.828;23.478;2023-04-30T02:20:50;8.77;;;6.32;;
9934;SDS011;5006;41.828;23.478;2023-04-30T02:21:55;6.82;;;6.07;;
9934;SDS011;5006;41.828;23.478;2023-04-30T02:23:01;9.18;;;5.95;;
9934;SDS011;5006;41.828;23.478;2023-04-30T02:24:07;8.32;;;5.93;;
9934;SDS011;5006;41.828;23.478;2023-04-30T02:25:12;8.32;;;6.40;;
9934;SDS011;5006;41.828;23.478;2023-04-30T02:26:18;6.57;;;5.90;;
9934;SDS011;5006;41.828;23.478;2023-04-30T02:27:23;6.68;;;5.95;;
9934;SDS011;5006;41.828;23.478;2023-04-30T02:28:30;6.70;;;5.82;;
9934;SDS011;5006;41.828;23.478;2023-04-30T02:29:35;8.25;;;6.25;;
9934;SDS011;5006;41.828;23.478;2023-04-30T02:30:43;7.03;;;6.30;;
9934;SDS011;5006;41.828;23.478;2023-04-30T02:31:47;7.20;;;5.97;;
9934;SDS011;5006;41.828;23.478;2023-04-30T02:32:54;6.53;;;5.78;;
9934;SDS011;5006;41.828;23.478;2023-04-30T02:33:59;6.38;;;5.50;;
9934;SDS011;5006;41.828;23.478;2023-04-30T02:35:05;7.20;;;5.80;;
9934;SDS011;5006;41.828;23.478;2023-04-30T02:36:09;6.57;;;5.70;;
9934;SDS011;5006;41.828;23.478;2023-04-30T02:37:16;8.02;;;6.13;;
9934;SDS011;5006;41.828;23.478;2023-04-30T02:38:21;6.30;;;5.70;;
9934;SDS011;5006;41.828;23.478;2023-04-30T02:39:27;7.10;;;6.28;;
9934;SDS011;5006;41.828;23.478;2023-04-30T02:40:32;7.20;;;5.90;;
9934;SDS011;5006;41.828;23.478;2023-04-30T02:41:38;6.60;;;5.90;;
9934;SDS011;5006;41.828;23.478;2023-04-30T02:42:43;6.80;;;6.07;;
9934;SDS011;5006;41.828;23.478;2023-04-30T02:43:50;6.90;;;6.22;;
9934;SDS011;5006;41.828;23.478;2023-04-30T02:44:55;7.40;;;6.70;;
9934;SDS011;5006;41.828;23.478;2023-04-30T02:46:03;9.38;;;6.85;;
9934;SDS011;5006;41.828;23.478;2023-04-30T02:47:08;6.97;;;6.28;;
9934;SDS011;5006;41.828;23.478;2023-04-30T02:48:14;8.27;;;6.40;;
9934;SDS011;5006;41.828;23.478;2023-04-30T02:49:19;7.78;;;6.72;;
9934;SDS011;5006;41.828;23.478;2023-04-30T02:50:25;7.28;;;6.57;;
9934;SDS011;5006;41.828;23.478;2023-04-30T02:51:31;7.68;;;6.20;;
9934;SDS011;5006;41.828;23.478;2023-04-30T02:52:37;7.55;;;6.22;;
9934;SDS011;5006;41.828;23.478;2023-04-30T02:53:41;7.10;;;6.35;;
9934;SDS011;5006;41.828;23.478;2023-04-30T02:54:48;7.25;;;6.55;;
9934;SDS011;5006;41.828;23.478;2023-04-30T02:55:53;7.40;;;6.70;;
9934;SDS011;5006;41.828;23.478;2023-04-30T02:57:00;7.90;;;7.20;;
9934;SDS011;5006;41.828;23.478;2023-04-30T02:58:05;8.52;;;6.32;;
9934;SDS011;5006;41.828;23.478;2023-04-30T02:59:11;7.53;;;6.65;;
9934;SDS011;5006;41.828;23.478;2023-04-30T03:00:16;8.95;;;7.63;;
9934;SDS011;5006;41.828;23.478;2023-04-30T03:01:24;7.63;;;6.82;;
9934;SDS011;5006;41.828;23.478;2023-04-30T03:02:28;11.63;;;7.28;;
9934;SDS011;5006;41.828;23.478;2023-04-30T03:03:34;9.60;;;7.80;;
9934;SDS011;5006;41.828;23.478;2023-04-30T03:04:39;7.55;;;6.88;;
9934;SDS011;5006;41.828;23.478;2023-04-30T03:05:46;8.98;;;6.72;;
9934;SDS011;5006;41.828;23.478;2023-04-30T03:06:50;8.35;;;7.40;;
9934;SDS011;5006;41.828;23.478;2023-04-30T03:07:56;8.90;;;7.30;;
9934;SDS011;5006;41.828;23.478;2023-04-30T03:09:02;9.18;;;7.85;;
9934;SDS011;5006;41.828;23.478;2023-04-30T03:10:08;7.78;;;6.93;;
9934;SDS011;5006;41.828;23.478;2023-04-30T03:11:14;7.88;;;7.07;;
9934;SDS011;5006;41.828;23.478;2023-04-30T03:12:21;7.90;;;6.80;;
9934;SDS011;5006;41.828;23.478;2023-04-30T03:13:26;8.15;;;7.35;;
9934;SDS011;5006;41.828;23.478;2023-04-30T03:14:31;7.80;;;7.00;;
9934;SDS011;5006;41.828;23.478;2023-04-30T03:15:36;8.07;;;7.38;;
9934;SDS011;5006;41.828;23.478;2023-04-30T03:16:44;8.02;;;7.20;;
9934;SDS011;5006;41.828;23.478;2023-04-30T03:17:49;8.45;;;7.30;;
9934;SDS011;5006;41.828;23.478;2023-04-30T03:18:56;7.93;;;6.90;;
9934;SDS011;5006;41.828;23.478;2023-04-30T03:20:00;7.53;;;6.82;;
9934;SDS011;5006;41.828;23.478;2023-04-30T03:21:06;10.05;;;7.45;;
9934;SDS011;5006;41.828;23.478;2023-04-30T03:22:12;7.72;;;7.03;;
9934;SDS011;5006;41.828;23.478;2023-04-30T03:23:18;7.65;;;6.95;;
9934;SDS011;5006;41.828;23.478;2023-04-30T03:24:23;7.95;;;7.25;;
9934;SDS011;5006;41.828;23.478;2023-04-30T03:25:30;8.85;;;8.02;;
9934;SDS011;5006;41.828;23.478;2023-04-30T03:26:34;9.40;;;7.70;;
9934;SDS011;5006;41.828;23.478;2023-04-30T03:27:40;8.07;;;7.28;;
9934;SDS011;5006;41.828;23.478;2023-04-30T03:28:46;9.27;;;8.35;;
9934;SDS011;5006;41.828;23.478;2023-04-30T03:29:53;10.10;;;8.55;;
9934;SDS011;5006;41.828;23.478;2023-04-30T03:30:58;9.48;;;8.45;;
9934;SDS011;5006;41.828;23.478;2023-04-30T03:32:05;10.65;;;8.38;;
9934;SDS011;5006;41.828;23.478;2023-04-30T03:33:09;9.43;;;8.38;;
9934;SDS011;5006;41.828;23.478;2023-04-30T03:34:15;9.98;;;8.10;;
9934;SDS011;5006;41.828;23.478;2023-04-30T03:35:22;10.55;;;8.70;;
9934;SDS011;5006;41.828;23.478;2023-04-30T03:36:27;9.75;;;8.77;;
9934;SDS011;5006;41.828;23.478;2023-04-30T03:37:32;8.35;;;7.57;;
9934;SDS011;5006;41.828;23.478;2023-04-30T03:38:37;9.13;;;8.23;;
9934;SDS011;5006;41.828;23.478;2023-04-30T03:39:44;8.70;;;7.90;;
9934;SDS011;5006;41.828;23.478;2023-04-30T03:40:50;9.45;;;8.40;;
9934;SDS011;5006;41.828;23.478;2023-04-30T03:41:55;9.95;;;7.97;;
9934;SDS011;5006;41.828;23.478;2023-04-30T03:43:00;8.85;;;7.95;;
9934;SDS011;5006;41.828;23.478;2023-04-30T03:44:06;9.23;;;8.32;;
9934;SDS011;5006;41.828;23.478;2023-04-30T03:45:19;10.38;;;8.68;;
9934;SDS011;5006;41.828;23.478;2023-04-30T03:46:25;8.93;;;8.00;;
9934;SDS011;5006;41.828;23.478;2023-04-30T03:47:32;8.48;;;7.65;;
9934;SDS011;5006;41.828;23.478;2023-04-30T03:48:38;9.48;;;7.88;;
9934;SDS011;5006;41.828;23.478;2023-04-30T03:49:44;9.07;;;8.13;;
9934;SDS011;5006;41.828;23.478;2023-04-30T03:50:52;8.88;;;8.07;;
9934;SDS011;5006;41.828;23.478;2023-04-30T03:51:58;9.75;;;7.82;;
9934;SDS011;5006;41.828;23.478;2023-04-30T03:53:05;9.15;;;8.02;;
9934;SDS011;5006;41.828;23.478;2023-04-30T03:54:10;8.48;;;7.65;;
9934;SDS011;5006;41.828;23.478;2023-04-30T03:55:15;9.95;;;8.50;;
9934;SDS011;5006;41.828;23.478;2023-04-30T03:56:20;8.38;;;7.60;;
9934;SDS011;5006;41.828;23.478;2023-04-30T03:57:27;8.55;;;7.65;;
9934;SDS011;5006;41.828;23.478;2023-04-30T03:58:33;8.98;;;8.20;;
9934;SDS011;5006;41.828;23.478;2023-04-30T03:59:40;10.20;;;7.78;;
9934;SDS011;5006;41.828;23.478;2023-04-30T04:00:46;10.25;;;8.45;;
9934;SDS011;5006;41.828;23.478;2023-04-30T04:01:52;9.00;;;8.15;;
9934;SDS011;5006;41.828;23.478;2023-04-30T04:02:59;9.10;;;8.20;;
9934;SDS011;5006;41.828;23.478;2023-04-30T04:04:06;8.77;;;7.88;;
9934;SDS011;5006;41.828;23.478;2023-04-30T04:05:11;8.60;;;7.80;;
9934;SDS011;5006;41.828;23.478;2023-04-30T04:06:17;8.63;;;7.85;;
9934;SDS011;5006;41.828;23.478;2023-04-30T04:07:24;8.63;;;7.72;;
9934;SDS011;5006;41.828;23.478;2023-04-30T04:08:30;8.32;;;7.50;;
9934;SDS011;5006;41.828;23.478;2023-04-30T04:09:36;8.35;;;7.65;;
9934;SDS011;5006;41.828;23.478;2023-04-30T04:10:42;8.88;;;8.07;;
9934;SDS011;5006;41.828;23.478;2023-04-30T04:11:47;9.27;;;8.40;;
9934;SDS011;5006;41.828;23.478;2023-04-30T04:12:53;8.68;;;7.88;;
9934;SDS011;5006;41.828;23.478;2023-04-30T04:13:58;9.00;;;8.20;;
9934;SDS011;5006;41.828;23.478;2023-04-30T04:15:05;9.15;;;8.27;;
9934;SDS011;5006;41.828;23.478;2023-04-30T04:16:11;9.40;;;8.50;;
9934;SDS011;5006;41.828;23.478;2023-04-30T04:17:17;9.25;;;8.35;;
9934;SDS011;5006;41.828;23.478;2023-04-30T04:18:24;9.18;;;8.20;;
9934;SDS011;5006;41.828;23.478;2023-04-30T04:19:30;10.45;;;8.95;;
9934;SDS011;5006;41.828;23.478;2023-04-30T04:20:36;10.13;;;8.55;;
9934;SDS011;5006;41.828;23.478;2023-04-30T04:21:41;9.60;;;8.68;;
9934;SDS011;5006;41.828;23.478;2023-04-30T04:22:51;8.93;;;8.13;;
9934;SDS011;5006;41.828;23.478;2023-04-30T04:23:58;8.13;;;7.35;;
9934;SDS011;5006;41.828;23.478;2023-04-30T04:25:06;9.00;;;8.20;;
9934;SDS011;5006;41.828;23.478;2023-04-30T04:26:12;11.65;;;8.55;;
9934;SDS011;5006;41.828;23.478;2023-04-30T04:27:20;9.75;;;8.85;;
9934;SDS011;5006;41.828;23.478;2023-04-30T04:28:25;9.73;;;8.75;;
9934;SDS011;5006;41.828;23.478;2023-04-30T04:29:32;10.88;;;8.95;;
9934;SDS011;5006;41.828;23.478;2023-04-30T04:30:36;10.77;;;9.77;;
9934;SDS011;5006;41.828;23.478;2023-04-30T04:31:43;11.43;;;9.00;;
9934;SDS011;5006;41.828;23.478;2023-04-30T04:32:49;10.93;;;9.18;;
9934;SDS011;5006;41.828;23.478;2023-04-30T04:33:59;11.10;;;9.52;;
9934;SDS011;5006;41.828;23.478;2023-04-30T04:35:06;11.00;;;9.90;;
9934;SDS011;5006;41.828;23.478;2023-04-30T04:36:14;10.93;;;9.82;;
9934;SDS011;5006;41.828;23.478;2023-04-30T04:37:20;10.93;;;9.82;;
9934;SDS011;5006;41.828;23.478;2023-04-30T04:38:26;12.50;;;11.13;;
9934;SDS011;5006;41.828;23.478;2023-04-30T04:39:30;12.43;;;11.18;;
9934;SDS011;5006;41.828;23.478;2023-04-30T04:40:37;11.98;;;10.73;;
9934;SDS011;5006;41.828;23.478;2023-04-30T04:41:42;11.20;;;10.07;;
9934;SDS011;5006;41.828;23.478;2023-04-30T04:42:48;12.57;;;10.32;;
9934;SDS011;5006;41.828;23.478;2023-04-30T04:43:53;11.40;;;10.30;;
9934;SDS011;5006;41.828;23.478;2023-04-30T04:44:59;11.45;;;10.30;;
9934;SDS011;5006;41.828;23.478;2023-04-30T04:46:06;11.88;;;10.57;;
9934;SDS011;5006;41.828;23.478;2023-04-30T04:47:13;12.95;;;11.65;;
9934;SDS011;5006;41.828;23.478;2023-04-30T04:48:17;11.55;;;10.38;;
9934;SDS011;5006;41.828;23.478;2023-04-30T04:49:25;12.52;;;10.13;;
9934;SDS011;5006;41.828;23.478;2023-04-30T04:50:30;13.63;;;10.65;;
9934;SDS011;5006;41.828;23.478;2023-04-30T04:51:36;11.45;;;10.15;;
9934;SDS011;5006;41.828;23.478;2023-04-30T04:52:43;15.10;;;12.45;;
9934;SDS011;5006;41.828;23.478;2023-04-30T04:53:49;15.10;;;12.38;;
9934;SDS011;5006;41.828;23.478;2023-04-30T04:54:56;13.95;;;12.48;;
9934;SDS011;5006;41.828;23.478;2023-04-30T04:56:01;13.45;;;11.73;;
9934;SDS011;5006;41.828;23.478;2023-04-30T04:57:06;11.98;;;10.77;;
9934;SDS011;5006;41.828;23.478;2023-04-30T04:58:13;11.25;;;9.70;;
9934;SDS011;5006;41.828;23.478;2023-04-30T04:59:17;12.80;;;9.60;;
9934;SDS011;5006;41.828;23.478;2023-04-30T05:00:26;10.23;;;8.90;;
9934;SDS011;5006;41.828;23.478;2023-04-30T05:01:31;9.57;;;8.48;;
9934;SDS011;5006;41.828;23.478;2023-04-30T05:02:37;9.13;;;8.02;;
9934;SDS011;5006;41.828;23.478;2023-04-30T05:03:43;8.63;;;7.32;;
9934;SDS011;5006;41.828;23.478;2023-04-30T05:04:51;9.02;;;8.13;;
9934;SDS011;5006;41.828;23.478;2023-04-30T05:05:57;9.73;;;7.43;;
9934;SDS011;5006;41.828;23.478;2023-04-30T05:07:04;7.45;;;6.72;;
9934;SDS011;5006;41.828;23.478;2023-04-30T05:08:08;8.60;;;6.65;;
9934;SDS011;5006;41.828;23.478;2023-04-30T05:09:14;7.43;;;6.25;;
9934;SDS011;5006;41.828;23.478;2023-04-30T05:10:20;7.78;;;6.97;;
9934;SDS011;5006;41.828;23.478;2023-04-30T05:11:26;8.43;;;6.38;;
9934;SDS011;5006;41.828;23.478;2023-04-30T05:12:31;8.15;;;7.35;;
9934;SDS011;5006;41.828;23.478;2023-04-30T05:13:37;7.35;;;6.50;;
9934;SDS011;5006;41.828;23.478;2023-04-30T05:14:42;9.20;;;6.53;;
9934;SDS011;5006;41.828;23.478;2023-04-30T05:15:50;7.32;;;6.22;;
9934;SDS011;5006;41.828;23.478;2023-04-30T05:16:56;6.88;;;6.10;;
9934;SDS011;5006;41.828;23.478;2023-04-30T05:18:02;7.97;;;6.82;;
9934;SDS011;5006;41.828;23.478;2023-04-30T05:19:08;14.32;;;9.68;;
9934;SDS011;5006;41.828;23.478;2023-04-30T05:20:15;18.88;;;11.25;;
9934;SDS011;5006;41.828;23.478;2023-04-30T05:21:21;16.85;;;9.35;;
9934;SDS011;5006;41.828;23.478;2023-04-30T05:22:30;11.45;;;7.63;;
9934;SDS011;5006;41.828;23.478;2023-04-30T05:23:35;12.27;;;8.38;;
9934;SDS011;5006;41.828;23.478;2023-04-30T05:24:41;12.85;;;7.93;;
9934;SDS011;5006;41.828;23.478;2023-04-30T05:25:50;14.27;;;9.23;;
9934;SDS011;5006;41.828;23.478;2023-04-30T05:26:56;12.35;;;8.57;;
9934;SDS011;5006;41.828;23.478;2023-04-30T05:28:01;16.38;;;9.80;;
9934;SDS011;5006;41.828;23.478;2023-04-30T05:29:06;17.23;;;9.32;;
9934;SDS011;5006;41.828;23.478;2023-04-30T05:30:14;10.05;;;7.97;;
9934;SDS011;5006;41.828;23.478;2023-04-30T05:31:19;9.98;;;7.47;;
9934;SDS011;5006;41.828;23.478;2023-04-30T05:32:25;9.73;;;8.27;;
9934;SDS011;5006;41.828;23.478;2023-04-30T05:33:31;10.50;;;8.05;;
9934;SDS011;5006;41.828;23.478;2023-04-30T05:34:37;13.23;;;9.80;;
9934;SDS011;5006;41.828;23.478;2023-04-30T05:35:44;9.20;;;6.80;;
9934;SDS011;5006;41.828;23.478;2023-04-30T05:36:51;8.98;;;6.43;;
9934;SDS011;5006;41.828;23.478;2023-04-30T05:37:57;9.30;;;6.72;;
9934;SDS011;5006;41.828;23.478;2023-04-30T05:39:02;11.05;;;9.13;;
9934;SDS011;5006;41.828;23.478;2023-04-30T05:40:09;12.80;;;9.90;;
9934;SDS011;5006;41.828;23.478;2023-04-30T05:41:15;12.57;;;10.52;;
9934;SDS011;5006;41.828;23.478;2023-04-30T05:42:21;13.10;;;8.65;;
9934;SDS011;5006;41.828;23.478;2023-04-30T05:43:25;11.50;;;8.88;;
9934;SDS011;5006;41.828;23.478;2023-04-30T05:44:31;11.27;;;8.25;;
9934;SDS011;5006;41.828;23.478;2023-04-30T05:45:36;8.90;;;7.97;;
9934;SDS011;5006;41.828;23.478;2023-04-30T05:46:42;11.38;;;7.65;;
9934;SDS011;5006;41.828;23.478;2023-04-30T05:47:48;9.02;;;7.47;;
9934;SDS011;5006;41.828;23.478;2023-04-30T05:48:54;7.35;;;6.65;;
9934;SDS011;5006;41.828;23.478;2023-04-30T05:49:58;8.40;;;7.35;;
9934;SDS011;5006;41.828;23.478;2023-04-30T05:51:06;8.88;;;6.88;;
9934;SDS011;5006;41.828;23.478;2023-04-30T05:52:11;7.95;;;6.97;;
9934;SDS011;5006;41.828;23.478;2023-04-30T05:53:19;9.27;;;7.15;;
9934;SDS011;5006;41.828;23.478;2023-04-30T05:54:23;8.00;;;7.07;;
9934;SDS011;5006;41.828;23.478;2023-04-30T05:55:29;10.48;;;7.32;;
9934;SDS011;5006;41.828;23.478;2023-04-30T05:56:35;10.45;;;7.55;;
9934;SDS011;5006;41.828;23.478;2023-04-30T05:57:40;10.15;;;7.15;;
9934;SDS011;5006;41.828;23.478;2023-04-30T05:58:46;10.45;;;7.50;;
9934;SDS011;5006;41.828;23.478;2023-04-30T05:59:52;9.65;;;7.50;;
9934;SDS011;5006;41.828;23.478;2023-04-30T06:00:58;8.40;;;7.30;;
9934;SDS011;5006;41.828;23.478;2023-04-30T06:02:04;8.25;;;6.88;;
9934;SDS011;5006;41.828;23.478;2023-04-30T06:03:10;9.23;;;7.53;;
9934;SDS011;5006;41.828;23.478;2023-04-30T06:04:16;9.25;;;6.93;;
9934;SDS011;5006;41.828;23.478;2023-04-30T06:05:22;7.90;;;7.10;;
9934;SDS011;5006;41.828;23.478;2023-04-30T06:06:29;9.82;;;6.95;;
9934;SDS011;5006;41.828;23.478;2023-04-30T06:07:34;12.52;;;7.78;;
9934;SDS011;5006;41.828;23.478;2023-04-30T06:08:40;10.27;;;7.00;;
9934;SDS011;5006;41.828;23.478;2023-04-30T06:09:48;8.52;;;7.40;;
9934;SDS011;5006;41.828;23.478;2023-04-30T06:10:54;8.95;;;7.40;;
9934;SDS011;5006;41.828;23.478;2023-04-30T06:11:59;8.60;;;7.70;;
9934;SDS011;5006;41.828;23.478;2023-04-30T06:13:06;9.88;;;8.38;;
9934;SDS011;5006;41.828;23.478;2023-04-30T06:14:13;9.93;;;8.25;;
9934;SDS011;5006;41.828;23.478;2023-04-30T06:15:19;9.07;;;7.80;;
9934;SDS011;5006;41.828;23.478;2023-04-30T06:16:24;8.70;;;7.82;;
9934;SDS011;5006;41.828;23.478;2023-04-30T06:17:30;10.60;;;8.10;;
9934;SDS011;5006;41.828;23.478;2023-04-30T06:18:37;9.13;;;8.05;;
9934;SDS011;5006;41.828;23.478;2023-04-30T06:19:43;9.52;;;8.40;;
9934;SDS011;5006;41.828;23.478;2023-04-30T06:20:47;9.95;;;8.00;;
9934;SDS011;5006;41.828;23.478;2023-04-30T06:21:55;10.63;;;8.63;;
9934;SDS011;5006;41.828;23.478;2023-04-30T06:23:01;9.70;;;8.70;;
9934;SDS011;5006;41.828;23.478;2023-04-30T06:24:07;9.35;;;8.45;;
9934;SDS011;5006;41.828;23.478;2023-04-30T06:25:12;10.23;;;8.30;;
9934;SDS011;5006;41.828;23.478;2023-04-30T06:26:18;8.90;;;7.93;;
9934;SDS011;5006;41.828;23.478;2023-04-30T06:27:23;9.80;;;7.78;;
9934;SDS011;5006;41.828;23.478;2023-04-30T06:28:31;9.18;;;8.18;;
9934;SDS011;5006;41.828;23.478;2023-04-30T06:29:37;9.05;;;8.13;;
9934;SDS011;5006;41.828;23.478;2023-04-30T06:30:42;9.60;;;8.55;;
9934;SDS011;5006;41.828;23.478;2023-04-30T06:31:47;9.25;;;8.30;;
9934;SDS011;5006;41.828;23.478;2023-04-30T06:32:53;9.27;;;8.25;;
9934;SDS011;5006;41.828;23.478;2023-04-30T06:33:58;9.02;;;8.13;;
9934;SDS011;5006;41.828;23.478;2023-04-30T06:35:04;8.70;;;7.75;;
9934;SDS011;5006;41.828;23.478;2023-04-30T06:36:10;9.43;;;8.35;;
9934;SDS011;5006;41.828;23.478;2023-04-30T06:37:18;11.65;;;8.50;;
9934;SDS011;5006;41.828;23.478;2023-04-30T06:38:24;8.95;;;8.05;;
9934;SDS011;5006;41.828;23.478;2023-04-30T06:39:29;8.25;;;7.43;;
9934;SDS011;5006;41.828;23.478;2023-04-30T06:40:36;9.23;;;8.23;;
9934;SDS011;5006;41.828;23.478;2023-04-30T06:41:41;10.57;;;7.70;;
9934;SDS011;5006;41.828;23.478;2023-04-30T06:42:48;9.20;;;7.10;;
9934;SDS011;5006;41.828;23.478;2023-04-30T06:43:52;7.72;;;6.90;;
9934;SDS011;5006;41.828;23.478;2023-04-30T06:44:58;8.63;;;7.28;;
9934;SDS011;5006;41.828;23.478;2023-04-30T06:46:04;8.88;;;7.53;;
9934;SDS011;5006;41.828;23.478;2023-04-30T06:47:10;12.40;;;7.38;;
9934;SDS011;5006;41.828;23.478;2023-04-30T06:48:16;9.20;;;7.00;;